createdAt,value
2017-09-22T00:00:39.622Z,11.20
2017-09-22T00:03:06.681Z,11.40
2017-09-22T00:05:33.740Z,11.50
2017-09-22T00:08:00.779Z,11.60
2017-09-22T00:10:27.814Z,11.40
2017-09-22T00:12:54.116Z,11.30
2017-09-22T00:15:20.391Z,11.10
2017-09-22T00:17:47.423Z,11.40
2017-09-22T00:20:13.710Z,11.30
2017-09-22T00:22:40.002Z,11.20
2017-09-22T00:25:07.017Z,11.30
2017-09-22T00:27:33.310Z,11.20
2017-09-22T00:29:59.608Z,11.50
2017-09-22T00:32:26.640Z,11.60
2017-09-22T00:34:53.707Z,11.40
2017-09-22T00:37:20.750Z,11.50
2017-09-22T00:39:47.798Z,11.70
2017-09-22T00:42:14.882Z,11.60
2017-09-22T00:44:41.204Z,11.60
2017-09-22T00:47:07.514Z,11.60
2017-09-22T00:49:33.835Z,11.50
2017-09-22T00:52:00.882Z,11.60
2017-09-22T00:54:27.204Z,11.60
2017-09-22T00:56:53.510Z,11.80
2017-09-22T00:59:19.821Z,11.70
2017-09-22T01:01:46.327Z,11.60
2017-09-22T01:04:12.667Z,11.50
2017-09-22T01:06:39.552Z,11.60
2017-09-22T01:09:05.912Z,11.80
2017-09-22T01:11:32.242Z,11.80
2017-09-22T01:13:58.554Z,11.70
2017-09-22T01:16:24.830Z,11.70
2017-09-22T01:18:51.109Z,11.80
2017-09-22T01:21:18.155Z,11.70
2017-09-22T01:23:51.464Z,11.60
2017-09-22T01:26:18.511Z,11.70
2017-09-22T01:28:45.541Z,11.50
2017-09-22T01:31:12.588Z,11.60
2017-09-22T01:33:38.901Z,11.50
2017-09-22T01:36:06.686Z,11.60
2017-09-22T01:38:32.964Z,11.60
2017-09-22T01:40:59.271Z,11.70
2017-09-22T01:43:25.566Z,11.80
2017-09-22T01:45:51.881Z,12.00
2017-09-22T01:48:18.179Z,12.00
2017-09-22T01:50:44.466Z,11.70
2017-09-22T01:53:11.513Z,11.90
2017-09-22T01:55:38.565Z,11.70
2017-09-22T01:58:05.597Z,11.40
2017-09-22T02:00:31.886Z,11.40
2017-09-22T02:02:58.172Z,11.30
2017-09-22T02:05:25.185Z,11.50
2017-09-22T02:07:51.480Z,11.50
2017-09-22T02:10:18.497Z,11.50
2017-09-22T02:12:44.806Z,11.50
2017-09-22T02:15:11.857Z,11.50
2017-09-22T02:17:38.898Z,11.30
2017-09-22T02:20:05.930Z,11.50
2017-09-22T02:22:32.233Z,11.40
2017-09-22T02:24:58.522Z,11.70
2017-09-22T02:27:25.549Z,11.60
2017-09-22T02:29:51.821Z,11.60
2017-09-22T02:32:18.127Z,11.50
2017-09-22T02:34:45.150Z,11.70
2017-09-22T02:37:11.433Z,11.70
2017-09-22T02:39:37.714Z,11.70
2017-09-22T02:42:03.993Z,11.20
2017-09-22T02:44:30.284Z,10.90
2017-09-22T02:46:56.600Z,10.80
2017-09-22T02:49:22.898Z,10.80
2017-09-22T02:51:49.190Z,10.90
2017-09-22T02:54:16.241Z,11.00
2017-09-22T02:56:42.521Z,10.90
2017-09-22T02:59:08.824Z,11.00
2017-09-22T03:01:35.113Z,11.00
2017-09-22T03:04:02.169Z,10.50
2017-09-22T03:06:29.194Z,10.50
2017-09-22T03:08:56.254Z,10.90
2017-09-22T03:11:23.271Z,11.00
2017-09-22T03:13:49.583Z,10.90
2017-09-22T03:16:15.881Z,10.80
2017-09-22T03:18:42.156Z,10.70
2017-09-22T03:21:08.445Z,10.80
2017-09-22T03:23:34.738Z,10.90
2017-09-22T03:26:01.034Z,10.80
2017-09-22T03:28:27.320Z,10.80
2017-09-22T03:30:53.615Z,10.80
2017-09-22T03:33:21.377Z,10.70
2017-09-22T03:35:47.676Z,10.70
2017-09-22T03:38:13.949Z,10.80
2017-09-22T03:40:40.236Z,10.80
2017-09-22T03:43:06.510Z,11.00
2017-09-22T03:45:32.799Z,11.00
2017-09-22T03:47:59.086Z,10.90
2017-09-22T03:50:26.136Z,10.90
2017-09-22T03:52:53.152Z,10.90
2017-09-22T03:55:19.448Z,10.80
2017-09-22T03:57:46.509Z,10.70
2017-09-22T04:00:12.787Z,10.80
2017-09-22T04:02:39.081Z,10.90
2017-09-22T04:05:05.365Z,11.00
2017-09-22T04:07:31.650Z,10.80
2017-09-22T04:09:57.931Z,10.50
2017-09-22T04:12:24.220Z,10.30
2017-09-22T04:14:51.229Z,10.20
2017-09-22T04:17:17.582Z,10.20
2017-09-22T04:19:43.859Z,10.10
2017-09-22T04:22:10.144Z,10.20
2017-09-22T04:24:37.177Z,10.40
2017-09-22T04:27:03.487Z,10.40
2017-09-22T04:29:29.791Z,10.50
2017-09-22T04:31:56.079Z,10.50
2017-09-22T04:34:22.360Z,10.50
2017-09-22T04:36:48.686Z,10.60
2017-09-22T04:39:14.968Z,10.50
2017-09-22T04:41:41.318Z,10.30
2017-09-22T04:44:08.364Z,9.90
2017-09-22T04:46:35.386Z,9.90
2017-09-22T04:49:01.676Z,9.90
2017-09-22T04:51:27.965Z,9.80
2017-09-22T04:53:54.993Z,9.90
2017-09-22T04:56:21.280Z,9.90
2017-09-22T04:58:47.574Z,10.10
2017-09-22T05:01:14.604Z,10.10
2017-09-22T05:03:40.906Z,10.00
2017-09-22T05:06:07.192Z,10.10
2017-09-22T05:08:33.486Z,10.30
2017-09-22T05:10:59.775Z,10.40
2017-09-22T05:13:26.094Z,10.10
2017-09-22T05:15:52.366Z,10.00
2017-09-22T05:18:18.685Z,10.00
2017-09-22T05:20:44.983Z,10.20
2017-09-22T05:23:11.283Z,10.20
2017-09-22T05:25:38.336Z,10.10
2017-09-22T05:28:05.406Z,9.80
2017-09-22T05:30:31.710Z,9.80
2017-09-22T05:32:58.730Z,9.50
2017-09-22T05:35:25.047Z,9.40
2017-09-22T05:37:51.323Z,9.70
2017-09-22T05:40:18.354Z,10.10
2017-09-22T05:42:45.386Z,10.20
2017-09-22T05:45:11.699Z,10.10
2017-09-22T05:47:38.009Z,10.30
2017-09-22T05:50:04.318Z,10.10
2017-09-22T05:52:30.598Z,9.90
2017-09-22T05:54:56.887Z,9.80
2017-09-22T05:57:23.198Z,9.80
2017-09-22T05:59:49.483Z,10.00
2017-09-22T06:02:15.793Z,10.00
2017-09-22T06:04:42.097Z,10.10
2017-09-22T06:07:08.447Z,10.10
2017-09-22T06:09:34.824Z,10.30
2017-09-22T06:12:01.124Z,10.40
2017-09-22T06:14:27.423Z,10.50
2017-09-22T06:16:53.723Z,10.30
2017-09-22T06:19:20.017Z,10.20
2017-09-22T06:21:47.092Z,10.50
2017-09-22T06:24:13.411Z,10.70
2017-09-22T06:26:40.470Z,10.60
2017-09-22T06:29:07.509Z,10.60
2017-09-22T06:31:33.790Z,10.50
2017-09-22T06:34:00.095Z,10.60
2017-09-22T06:36:27.165Z,10.70
2017-09-22T06:38:53.465Z,10.70
2017-09-22T06:41:20.495Z,10.70
2017-09-22T06:43:46.826Z,10.60
2017-09-22T06:46:13.113Z,10.60
2017-09-22T06:48:40.440Z,10.70
2017-09-22T06:51:06.746Z,10.70
2017-09-22T06:53:33.805Z,10.80
2017-09-22T06:56:00.860Z,11.00
2017-09-22T06:58:27.193Z,10.90
2017-09-22T07:00:53.491Z,11.10
2017-09-22T07:03:20.802Z,11.30
2017-09-22T07:05:47.208Z,11.20
2017-09-22T07:08:13.495Z,11.30
2017-09-22T07:10:39.820Z,11.60
2017-09-22T07:13:06.896Z,11.80
2017-09-22T07:15:33.940Z,11.80
2017-09-22T07:18:00.996Z,11.70
2017-09-22T07:20:28.046Z,11.60
2017-09-22T07:22:54.349Z,11.50
2017-09-22T07:25:20.657Z,11.60
2017-09-22T07:27:47.951Z,11.60
2017-09-22T07:30:15.946Z,11.80
2017-09-22T07:32:42.250Z,11.80
2017-09-22T07:35:09.314Z,11.90
2017-09-22T07:37:36.325Z,12.00
2017-09-22T07:40:02.609Z,12.00
2017-09-22T07:42:28.933Z,12.10
2017-09-22T07:44:55.213Z,12.20
2017-09-22T07:47:22.297Z,12.30
2017-09-22T07:49:48.591Z,12.30
2017-09-22T07:52:15.629Z,12.60
2017-09-22T07:54:42.671Z,12.60
2017-09-22T07:57:10.473Z,12.60
2017-09-22T07:59:37.514Z,12.80
2017-09-22T08:02:04.577Z,12.80
2017-09-22T08:04:31.603Z,12.90
2017-09-22T08:06:59.611Z,13.00
2017-09-22T08:09:25.906Z,13.00
2017-09-22T08:11:52.964Z,13.10
2017-09-22T08:14:19.269Z,13.00
2017-09-22T08:16:46.349Z,13.20
2017-09-22T08:19:13.374Z,13.20
2017-09-22T08:21:40.421Z,13.20
2017-09-22T08:24:07.476Z,13.20
2017-09-22T08:26:34.515Z,13.40
2017-09-22T08:29:01.546Z,13.40
2017-09-22T08:31:27.845Z,13.40
2017-09-22T08:33:54.467Z,13.40
2017-09-22T08:36:20.773Z,13.50
2017-09-22T08:38:47.083Z,13.50
2017-09-22T08:41:13.424Z,13.60
2017-09-22T08:43:40.456Z,13.70
2017-09-22T08:46:06.731Z,13.70
2017-09-22T08:48:33.033Z,13.90
2017-09-22T08:51:00.105Z,13.90
2017-09-22T08:53:26.396Z,13.80
2017-09-22T08:55:53.426Z,14.00
2017-09-22T08:58:20.499Z,14.00
2017-09-22T09:00:47.572Z,14.10
2017-09-22T09:03:14.604Z,14.00
2017-09-22T09:05:41.823Z,14.10
2017-09-22T09:08:09.107Z,14.30
2017-09-22T09:10:35.433Z,14.20
2017-09-22T09:13:02.477Z,14.60
2017-09-22T09:15:28.803Z,14.50
2017-09-22T09:17:55.102Z,14.60
2017-09-22T09:20:21.395Z,14.80
2017-09-22T09:22:47.695Z,14.80
2017-09-22T09:25:14.743Z,15.10
2017-09-22T09:27:41.784Z,15.10
2017-09-22T09:30:08.866Z,15.10
2017-09-22T09:32:35.168Z,15.10
2017-09-22T09:35:02.222Z,15.20
2017-09-22T09:37:28.558Z,15.10
2017-09-22T09:39:54.879Z,15.10
2017-09-22T09:42:21.930Z,15.00
2017-09-22T09:44:48.994Z,14.90
2017-09-22T09:47:15.330Z,14.90
2017-09-22T09:49:42.538Z,14.90
2017-09-22T09:52:09.588Z,14.90
2017-09-22T09:54:36.646Z,14.80
2017-09-22T09:57:03.738Z,14.60
2017-09-22T09:59:30.037Z,14.50
2017-09-22T10:01:56.410Z,14.50
2017-09-22T10:04:22.729Z,14.50
2017-09-22T10:06:49.308Z,14.60
2017-09-22T10:09:15.809Z,14.80
2017-09-22T10:11:42.156Z,15.00
2017-09-22T10:14:09.242Z,15.10
2017-09-22T10:16:35.565Z,15.10
2017-09-22T10:19:02.624Z,15.30
2017-09-22T10:21:28.956Z,15.20
2017-09-22T10:23:55.292Z,15.40
2017-09-22T10:26:21.589Z,15.30
2017-09-22T10:28:48.757Z,15.50
2017-09-22T10:31:15.794Z,15.70
2017-09-22T10:33:42.110Z,15.60
2017-09-22T10:36:08.450Z,15.70
2017-09-22T10:38:35.546Z,15.40
2017-09-22T10:41:01.869Z,15.40
2017-09-22T10:43:28.177Z,15.60
2017-09-22T10:45:54.530Z,15.50
2017-09-22T10:48:20.826Z,15.50
2017-09-22T10:50:47.133Z,15.60
2017-09-22T10:53:14.174Z,15.90
2017-09-22T10:55:40.498Z,15.80
2017-09-22T10:58:08.308Z,16.00
2017-09-22T11:00:34.619Z,16.00
2017-09-22T11:03:00.937Z,16.10
2017-09-22T11:05:27.259Z,16.00
2017-09-22T11:07:54.325Z,16.20
2017-09-22T11:10:21.400Z,16.10
2017-09-22T11:12:47.690Z,16.00
2017-09-22T11:15:14.739Z,16.10
2017-09-22T11:17:41.045Z,16.10
2017-09-22T11:20:07.363Z,16.30
2017-09-22T11:22:33.676Z,16.40
2017-09-22T11:24:59.977Z,16.30
2017-09-22T11:27:27.021Z,16.20
2017-09-22T11:29:54.114Z,16.20
2017-09-22T11:32:20.414Z,16.20
2017-09-22T11:34:46.717Z,16.30
2017-09-22T11:37:13.778Z,16.30
2017-09-22T11:39:40.834Z,16.30
2017-09-22T11:42:07.238Z,16.20
2017-09-22T11:44:35.018Z,16.30
2017-09-22T11:47:02.065Z,16.40
2017-09-22T11:49:29.109Z,16.60
2017-09-22T11:51:56.411Z,16.80
2017-09-22T11:54:22.715Z,16.70
2017-09-22T11:56:49.014Z,16.90
2017-09-22T11:59:16.084Z,17.00
2017-09-22T12:01:42.403Z,16.90
2017-09-22T12:04:08.714Z,16.90
2017-09-22T12:06:35.743Z,17.00
2017-09-22T12:09:02.108Z,16.90
2017-09-22T12:11:29.166Z,17.20
2017-09-22T12:13:56.238Z,17.30
2017-09-22T12:16:22.551Z,17.20
2017-09-22T12:18:48.853Z,17.20
2017-09-22T12:21:15.922Z,17.40
2017-09-22T12:23:42.200Z,17.40
2017-09-22T12:26:08.542Z,17.40
2017-09-22T12:28:34.846Z,17.20
2017-09-22T12:31:01.159Z,17.10
2017-09-22T12:33:27.486Z,17.20
2017-09-22T12:35:53.821Z,17.10
2017-09-22T12:38:20.130Z,17.20
2017-09-22T12:40:46.471Z,17.30
2017-09-22T12:43:12.787Z,17.60
2017-09-22T12:45:39.129Z,17.80
2017-09-22T12:48:05.455Z,17.90
2017-09-22T12:50:31.758Z,18.10
2017-09-22T12:52:58.812Z,18.40
2017-09-22T12:55:25.867Z,18.60
2017-09-22T12:57:52.934Z,18.30
2017-09-22T13:00:19.237Z,18.20
2017-09-22T13:02:46.341Z,18.70
2017-09-22T13:05:12.787Z,18.70
2017-09-22T13:07:39.124Z,18.90
2017-09-22T13:10:05.838Z,19.10
2017-09-22T13:12:32.173Z,19.20
2017-09-22T13:14:58.535Z,19.30
2017-09-22T13:17:25.644Z,19.40
2017-09-22T13:19:51.972Z,19.30
2017-09-22T13:22:18.296Z,19.60
2017-09-22T13:24:45.537Z,19.80
2017-09-22T13:27:11.843Z,19.80
2017-09-22T13:29:38.940Z,20.20
2017-09-22T13:32:05.239Z,20.10
2017-09-22T13:34:31.575Z,20.20
2017-09-22T13:36:57.878Z,20.40
2017-09-22T13:39:25.549Z,20.80
2017-09-22T13:41:52.597Z,20.80
2017-09-22T13:44:19.684Z,21.20
2017-09-22T13:46:46.037Z,21.20
2017-09-22T13:49:12.344Z,21.30
2017-09-22T13:51:38.635Z,21.40
2017-09-22T13:54:05.735Z,21.50
2017-09-22T13:56:32.112Z,21.50
2017-09-22T13:58:58.453Z,21.80
2017-09-22T14:01:25.501Z,20.60
2017-09-22T14:03:51.831Z,20.60
2017-09-22T14:06:18.154Z,20.70
2017-09-22T14:08:44.482Z,20.70
2017-09-22T14:11:11.538Z,20.90
2017-09-22T14:13:37.837Z,20.90
2017-09-22T14:16:05.661Z,20.70
2017-09-22T14:18:31.992Z,20.70
2017-09-22T14:20:58.306Z,20.90
2017-09-22T14:23:24.635Z,21.00
2017-09-22T14:25:50.947Z,21.20
2017-09-22T14:28:17.269Z,21.90
2017-09-22T14:30:44.310Z,23.50
2017-09-22T14:33:11.350Z,24.70
2017-09-22T14:35:37.673Z,24.60
2017-09-22T14:38:04.014Z,25.50
2017-09-22T14:40:31.073Z,26.90
2017-09-22T14:42:57.384Z,26.80
2017-09-22T14:45:23.667Z,27.30
2017-09-22T14:47:49.968Z,26.80
2017-09-22T14:50:16.995Z,26.70
2017-09-22T14:52:44.039Z,26.40
2017-09-22T14:55:10.334Z,26.40
2017-09-22T14:57:36.661Z,26.00
2017-09-22T15:00:02.980Z,26.00
2017-09-22T15:02:29.280Z,26.40
2017-09-22T15:04:56.305Z,25.90
2017-09-22T15:07:22.610Z,25.80
2017-09-22T15:09:48.907Z,25.70
2017-09-22T15:12:15.196Z,25.20
2017-09-22T15:14:41.500Z,24.70
2017-09-22T15:17:07.809Z,23.50
2017-09-22T15:19:34.110Z,22.80
2017-09-22T15:22:01.143Z,21.20
2017-09-22T15:24:28.194Z,20.50
2017-09-22T15:26:55.230Z,20.30
2017-09-22T15:29:22.285Z,20.10
2017-09-22T15:31:48.613Z,20.00
2017-09-22T15:34:15.665Z,20.00
2017-09-22T15:36:42.693Z,20.40
2017-09-22T15:39:09.009Z,20.40
2017-09-22T15:41:35.375Z,20.90
2017-09-22T15:44:02.441Z,22.60
2017-09-22T15:46:28.711Z,22.60
2017-09-22T15:48:55.011Z,23.50
2017-09-22T15:51:21.341Z,24.10
2017-09-22T15:53:47.628Z,24.40
2017-09-22T15:56:14.705Z,24.10
2017-09-22T15:58:41.349Z,24.00
2017-09-22T16:01:07.717Z,24.00
2017-09-22T16:03:34.330Z,24.60
2017-09-22T16:06:00.666Z,24.90
2017-09-22T16:08:27.015Z,24.70
2017-09-22T16:10:53.329Z,25.00
2017-09-22T16:13:21.293Z,24.60
2017-09-22T16:15:47.637Z,24.60
2017-09-22T16:18:13.968Z,24.70
2017-09-22T16:20:40.379Z,24.60
2017-09-22T16:23:06.820Z,24.60
2017-09-22T16:25:33.431Z,24.60
2017-09-22T16:27:59.849Z,24.00
2017-09-22T16:30:26.938Z,22.60
2017-09-22T16:32:53.298Z,22.50
2017-09-22T16:35:19.792Z,22.00
2017-09-22T16:37:46.122Z,21.60
2017-09-22T16:40:12.433Z,20.80
2017-09-22T16:42:38.746Z,20.30
2017-09-22T16:45:05.795Z,19.20
2017-09-22T16:47:32.820Z,19.00
2017-09-22T16:49:59.189Z,18.90
2017-09-22T16:52:25.492Z,18.70
2017-09-22T16:54:51.827Z,18.50
2017-09-22T16:57:18.161Z,18.60
2017-09-22T16:59:45.194Z,17.90
2017-09-22T17:02:11.476Z,17.80
2017-09-22T17:04:37.816Z,17.60
2017-09-22T17:07:04.542Z,17.30
2017-09-22T17:09:32.057Z,17.00
2017-09-22T17:11:59.936Z,16.80
2017-09-22T17:14:26.328Z,16.80
2017-09-22T17:16:52.603Z,16.90
2017-09-22T17:19:19.668Z,16.90
2017-09-22T17:21:45.964Z,16.80
2017-09-22T17:24:13.723Z,16.90
2017-09-22T17:26:40.007Z,16.90
2017-09-22T17:29:06.294Z,16.70
2017-09-22T17:31:33.339Z,16.90
2017-09-22T17:33:59.701Z,16.90
2017-09-22T17:36:26.097Z,16.50
2017-09-22T17:38:53.141Z,16.40
2017-09-22T17:41:20.937Z,16.40
2017-09-22T17:43:47.277Z,16.40
2017-09-22T17:46:13.617Z,16.40
2017-09-22T17:48:39.906Z,16.30
2017-09-22T17:51:06.197Z,16.20
2017-09-22T17:53:32.514Z,16.40
2017-09-22T17:55:58.821Z,16.30
2017-09-22T17:58:25.093Z,16.20
2017-09-22T18:00:51.393Z,16.00
2017-09-22T18:03:17.686Z,15.70
2017-09-22T18:05:44.754Z,15.70
2017-09-22T18:08:11.045Z,15.70
2017-09-22T18:10:38.106Z,15.20
2017-09-22T18:13:04.430Z,15.10
2017-09-22T18:15:31.510Z,15.10
2017-09-22T18:17:57.797Z,15.00
2017-09-22T18:20:24.111Z,15.30
2017-09-22T18:22:50.464Z,15.00
2017-09-22T18:25:17.523Z,14.60
2017-09-22T18:27:44.543Z,14.50
2017-09-22T18:30:10.858Z,14.50
2017-09-22T18:32:37.124Z,14.40
2017-09-22T18:35:04.156Z,14.40
2017-09-22T18:37:31.196Z,14.30
2017-09-22T18:39:57.540Z,14.30
2017-09-22T18:42:24.617Z,14.70
2017-09-22T18:44:51.669Z,14.80
2017-09-22T18:47:17.956Z,14.80
2017-09-22T18:49:44.305Z,14.50
2017-09-22T18:52:12.317Z,14.60
2017-09-22T18:54:38.642Z,14.60
2017-09-22T18:57:05.005Z,14.50
2017-09-22T18:59:32.070Z,14.00
2017-09-22T19:01:59.854Z,13.70
2017-09-22T19:04:26.974Z,13.70
2017-09-22T19:06:53.277Z,13.70
2017-09-22T19:09:19.806Z,13.80
2017-09-22T19:11:46.158Z,13.60
2017-09-22T19:14:13.212Z,13.70
2017-09-22T19:16:39.607Z,13.60
2017-09-22T19:19:05.968Z,13.60
2017-09-22T19:21:33.767Z,13.40
2017-09-22T19:24:00.358Z,13.40
2017-09-22T19:26:27.497Z,13.40
2017-09-22T19:28:53.803Z,13.50
2017-09-22T19:31:21.486Z,13.50
2017-09-22T19:33:47.860Z,13.50
2017-09-22T19:36:15.790Z,13.60
2017-09-22T19:38:42.130Z,13.50
2017-09-22T19:41:08.451Z,13.60
2017-09-22T19:43:34.826Z,13.90
2017-09-22T19:46:01.129Z,14.10
2017-09-22T19:48:27.489Z,14.30
2017-09-22T19:50:54.827Z,14.00
2017-09-22T19:53:21.922Z,13.60
2017-09-22T19:55:48.297Z,13.60
2017-09-22T19:58:15.469Z,13.40
2017-09-22T20:00:43.409Z,13.40
2017-09-22T20:03:09.789Z,13.30
2017-09-22T20:05:36.095Z,13.80
2017-09-22T20:08:03.218Z,13.00
2017-09-22T20:10:29.529Z,13.00
2017-09-22T20:12:55.854Z,12.80
2017-09-22T20:15:22.221Z,12.90
2017-09-22T20:17:48.539Z,13.10
2017-09-22T20:20:14.945Z,12.90
2017-09-22T20:22:42.105Z,13.00
2017-09-22T20:25:08.516Z,12.70
2017-09-22T20:27:34.994Z,12.90
2017-09-22T20:30:01.467Z,12.80
2017-09-22T20:32:28.875Z,13.20
2017-09-22T20:34:55.984Z,13.10
2017-09-22T20:37:22.302Z,13.10
2017-09-22T20:39:49.403Z,12.30
2017-09-22T20:42:15.756Z,12.30
2017-09-22T20:44:42.825Z,12.40
2017-09-22T20:47:09.868Z,12.40
2017-09-22T20:49:36.938Z,12.60
2017-09-22T20:52:03.247Z,12.50
2017-09-22T20:54:31.059Z,12.50
2017-09-22T20:56:57.435Z,12.40
2017-09-22T20:59:23.836Z,12.40
2017-09-22T21:01:50.176Z,12.40
2017-09-22T21:04:16.499Z,12.60
2017-09-22T21:06:42.860Z,12.70
2017-09-22T21:09:09.187Z,12.50
2017-09-22T21:11:35.498Z,12.50
2017-09-22T21:14:01.829Z,12.60
2017-09-22T21:16:28.148Z,12.20
2017-09-22T21:18:54.459Z,12.30
2017-09-22T21:21:20.822Z,12.30
2017-09-22T21:23:47.173Z,12.30
2017-09-22T21:26:14.287Z,12.40
2017-09-22T21:28:40.762Z,12.30
2017-09-22T21:31:07.133Z,12.40
2017-09-22T21:33:33.448Z,12.40
2017-09-22T21:35:59.920Z,12.40
2017-09-22T21:38:26.485Z,12.40
2017-09-22T21:40:52.937Z,12.20
2017-09-22T21:43:19.981Z,12.00
2017-09-22T21:45:47.010Z,11.60
2017-09-22T21:48:13.490Z,11.60
2017-09-22T21:50:39.863Z,11.40
2017-09-22T21:53:06.170Z,11.50
2017-09-22T21:55:32.503Z,11.40
2017-09-22T21:57:58.853Z,11.20
2017-09-22T22:00:25.188Z,11.20
2017-09-22T22:02:52.334Z,11.30
2017-09-22T22:05:25.614Z,11.20
2017-09-22T22:07:51.910Z,11.20
2017-09-22T22:10:18.247Z,11.40
2017-09-22T22:12:44.646Z,11.60
2017-09-22T22:15:10.983Z,11.50
2017-09-22T22:17:38.945Z,11.40
2017-09-22T22:20:05.974Z,11.30
2017-09-22T22:22:32.263Z,11.30
2017-09-22T22:24:58.577Z,11.70
2017-09-22T22:27:24.862Z,12.00
2017-09-22T22:29:51.173Z,11.70
2017-09-22T22:32:17.448Z,11.40
2017-09-22T22:34:44.479Z,11.90
2017-09-22T22:37:11.509Z,11.60
2017-09-22T22:39:37.772Z,11.50
2017-09-22T22:42:04.809Z,11.70
2017-09-22T22:44:31.121Z,11.60
2017-09-22T22:46:58.885Z,11.70
2017-09-22T22:49:25.929Z,11.20
2017-09-22T22:51:53.685Z,11.00
2017-09-22T22:54:20.005Z,11.00
2017-09-22T22:56:46.288Z,11.00
2017-09-22T22:59:13.305Z,11.00
2017-09-22T23:01:39.589Z,10.90
2017-09-22T23:04:05.901Z,11.20
2017-09-22T23:06:32.948Z,11.20
2017-09-22T23:08:59.240Z,11.20
2017-09-22T23:11:25.518Z,10.80
2017-09-22T23:13:51.808Z,10.90
2017-09-22T23:16:18.836Z,10.90
2017-09-22T23:18:45.117Z,10.80
2017-09-22T23:21:11.413Z,10.90
2017-09-22T23:23:38.451Z,10.90
2017-09-22T23:26:05.490Z,10.80
2017-09-22T23:28:31.775Z,10.80
2017-09-22T23:30:58.073Z,10.90
2017-09-22T23:33:25.084Z,11.00
2017-09-22T23:35:51.369Z,11.00
2017-09-22T23:38:17.658Z,11.10
2017-09-22T23:40:43.951Z,11.00
2017-09-22T23:43:10.271Z,11.00
2017-09-22T23:45:36.553Z,10.90
2017-09-22T23:48:02.858Z,11.00
2017-09-22T23:50:29.128Z,10.90
2017-09-22T23:52:56.153Z,10.70
2017-09-22T23:55:22.473Z,10.70
2017-09-22T23:57:48.750Z,10.80
